Hlavní strana
METAR-TAF:

METAR-TAF

Letiště :

Ropná věž

Ekofisk, Norsko

zeměpisná šířka: 56-33N, zeměpisná délka: 003-15E, výška: 3 m

Aktuální stav počasí

Zpráva byla vytvořena před 12 minutami, v 10:50 UTC
Západní vítr 32 kt
Teplota 7°C
Vlhkost vzduchu 70%
Tlak 993 hPa
Viditelnost 10 km a více
Skoro jasno ve výšce 1500 ft, Vertikální cumulus.
Oblačno až skoro zataženo ve výšce 4000 ft
slabé dešťové přeháňky

METAR: ENLE 291050Z 26032KT 9999 -SHRA FEW015TCU BKN040 07/02 Q0993 W08/S4

Čas: 12:02 (11:02 UTC)

Předpověď počasí

Zpráva byla vytvořena před 3 hodinami a 2 minutami, v 08:00 UTC
Předpověď platná od 29 v 09 UTC do 29 v 18 UTC
Západní vítr 35 kt
Viditelnost 10 km a více
Skoro jasno ve výšce 1500 ft, Vertikální cumulus.
Polojasno ve výšce 2500 ft
slabé dešťové přeháňky
Změna
od 29 v 15 UTC do 29 v 17 UTC
Západojihozápadní vítr 25 kt

TAF: ENLE 290800Z 2909/2918 26035KT 9999 -SHRA FEW015TCU SCT025 BECMG 2915/2917 25025KT

Stav a předpovědi počasí z více než 4 000 letišť (zprávy METAR a TAF).

Červené a žluté tečky na mapě představují dostupné meteorologické stanice.

Když kurzor umístíte na tečku, zobrazí se název stanice.

Pak kliknutím zobrazíte stav a předpověď počasí.

Chcete-li změnit mapu, kliknutím na zelené tlačítko se znaménkem +mapu přiblížíte, kliknutím na zelené tlačítko se znaménkem – mapu oddálíte a kliknutím na zelené šipky přejdete na sousední mapy.


METAR-TAF: